Time;durP1;ratioP1;P1;durP2;ratioP2;P2;SDS_P1;SDS_P2;PMS_P1;PMS_P2;Temp;Humidity;BMP_temperature;BMP_pressure;BME280_temperature;BME280_humidity;BME280_pressure;Samples;Min_cycle;Max_cycle;Signal;HPM_P1;HPM_P2
2021/05/09 00:00:50;;;;;;;6.45;2.22;;;14.80;74.90;;;13.69;67.74;99750.75;5070896;28;20044;-78
2021/05/09 00:03:29;;;;;;;4.32;1.88;;;14.80;74.20;;;13.69;67.48;99756.22;5070483;28;20331;-78
2021/05/09 00:06:07;;;;;;;5.53;2.10;;;14.70;74.30;;;13.69;67.82;99749.91;5070905;28;20420;-78
2021/05/09 00:08:43;;;;;;;4.28;2.30;;;14.70;74.80;;;13.68;68.35;99749.06;5071027;28;20493;-78
2021/05/09 00:11:18;;;;;;;5.57;2.33;;;14.80;75.10;;;13.66;68.27;99742.97;5070950;28;20072;-78
2021/05/09 00:13:53;;;;;;;4.63;1.88;;;14.80;74.40;;;13.65;68.39;99741.31;5070449;28;20044;-78
2021/05/09 00:16:29;;;;;;;4.95;1.77;;;14.80;74.50;;;13.64;68.45;99736.91;5070653;28;20051;-78
2021/05/09 00:19:04;;;;;;;4.20;1.90;;;14.80;75.20;;;13.66;68.60;99744.88;5070691;28;20048;-78
2021/05/09 00:21:39;;;;;;;6.38;1.90;;;14.80;74.80;;;13.66;68.44;99740.25;5070539;28;20040;-78
2021/05/09 00:24:17;;;;;;;5.45;1.83;;;14.80;75.20;;;13.66;68.11;99742.97;5070468;28;20124;-78
2021/05/09 00:26:49;;;;;;;4.18;1.90;;;14.80;75.00;;;13.66;67.88;99723.84;5070699;28;20102;-78
2021/05/09 00:29:25;;;;;;;5.20;2.00;;;14.80;74.70;;;13.66;68.42;99723.00;5070511;28;20048;-78
2021/05/09 00:32:00;;;;;;;5.07;2.05;;;14.80;75.00;;;13.67;68.20;99716.50;5070084;28;20044;-76
2021/05/09 00:34:38;;;;;;;6.15;1.98;;;14.80;75.20;;;13.67;68.31;99720.06;5070417;28;20117;-76
2021/05/09 00:37:13;;;;;;;5.60;2.05;;;14.80;75.20;;;13.66;67.79;99715.63;5070408;28;20043;-78
2021/05/09 00:39:50;;;;;;;6.43;1.90;;;14.80;75.10;;;13.65;68.56;99719.44;5068863;28;20049;-78
2021/05/09 00:42:26;;;;;;;3.60;1.67;;;14.80;75.20;;;13.65;68.60;99716.72;5069642;28;20055;-78
2021/05/09 00:45:04;;;;;;;3.45;2.00;;;14.80;75.10;;;13.63;68.65;99721.56;5069821;28;20059;-78
2021/05/09 00:47:43;;;;;;;5.53;2.20;;;14.80;75.20;;;13.65;68.43;99715.84;5070055;28;20427;-78
2021/05/09 00:50:20;;;;;;;4.25;2.00;;;14.80;75.30;;;13.64;68.67;99717.75;5070011;28;20412;-78
2021/05/09 00:53:00;;;;;;;5.28;1.83;;;14.80;75.20;;;13.64;68.52;99704.09;5057874;28;20033;-78
2021/05/09 00:55:42;;;;;;;5.22;2.05;;;14.80;75.30;;;13.64;68.21;99706.81;5048365;28;20049;-78
2021/05/09 00:58:21;;;;;;;4.78;1.85;;;14.80;75.00;;;13.65;68.49;99707.66;5050012;28;20041;-78
2021/05/09 01:00:57;;;;;;;6.03;1.98;;;14.80;75.00;;;13.65;68.07;99702.19;5049880;28;20041;-78
2021/05/09 01:03:37;;;;;;;5.03;2.20;;;14.80;75.30;;;13.63;68.66;99710.63;5049612;28;20647;-78
2021/05/09 01:06:12;;;;;;;4.13;2.03;;;14.80;75.30;;;13.63;68.21;99707.03;5048474;28;20053;-76
2021/05/09 01:08:52;;;;;;;4.47;2.00;;;14.80;75.20;;;13.64;68.20;99698.63;5049809;28;20386;-76
2021/05/09 01:11:36;;;;;;;4.07;1.88;;;14.80;75.00;;;13.63;68.69;99699.69;5064812;28;20048;-76
2021/05/09 01:14:09;;;;;;;4.03;1.95;;;14.80;74.80;;;13.61;68.34;99699.09;5049586;28;20053;-78
2021/05/09 01:16:45;;;;;;;3.63;2.00;;;14.70;74.80;;;13.59;68.44;99692.16;5048315;28;20056;-78
2021/05/09 01:19:23;;;;;;;3.17;1.67;;;14.70;75.00;;;13.58;68.41;99691.31;5048249;28;20421;-78
2021/05/09 01:22:05;;;;;;;4.47;2.10;;;14.70;74.90;;;13.60;68.07;99688.38;5047709;28;20091;-78
2021/05/09 01:24:43;;;;;;;4.13;1.80;;;14.70;75.00;;;13.59;68.11;99678.50;5066281;28;20076;-78
2021/05/09 01:27:17;;;;;;;5.15;1.83;;;14.70;75.10;;;13.60;68.03;99683.72;5069353;28;20102;-78
2021/05/09 01:29:56;;;;;;;5.30;2.08;;;14.70;75.20;;;13.60;68.08;99681.00;5068050;28;20060;-78
2021/05/09 01:32:31;;;;;;;6.45;1.92;;;14.70;75.00;;;13.57;68.32;99678.69;5069038;28;20036;-78
2021/05/09 01:35:13;;;;;;;4.75;2.13;;;14.70;75.30;;;13.57;68.33;99672.41;5067838;28;20417;-78
2021/05/09 01:37:52;;;;;;;7.00;2.08;;;14.70;75.10;;;13.57;68.63;99667.78;5069219;28;20040;-78
2021/05/09 01:40:30;;;;;;;4.30;2.00;;;14.70;74.90;;;13.56;68.67;99677.06;5069287;28;20041;-76
2021/05/09 01:43:05;;;;;;;3.90;2.10;;;14.70;75.40;;;13.57;68.28;99667.78;5068749;28;20040;-78
2021/05/09 01:45:40;;;;;;;4.40;1.80;;;14.70;75.50;;;13.58;68.73;99666.72;5067395;28;20057;-78
2021/05/09 01:48:21;;;;;;;5.43;2.10;;;14.70;75.70;;;13.57;69.15;99654.09;5067681;28;20053;-78
2021/05/09 01:50:57;;;;;;;6.40;2.20;;;14.70;75.40;;;13.58;68.84;99657.69;5067822;28;20089;-78
2021/05/09 01:53:33;;;;;;;4.75;2.20;;;14.70;75.50;;;13.58;68.79;99653.06;5067316;28;20044;-78
2021/05/09 01:56:09;;;;;;;4.60;1.92;;;14.70;75.60;;;13.58;68.88;99647.59;5068030;28;20048;-78
2021/05/09 01:58:49;;;;;;;4.00;1.95;;;14.70;75.50;;;13.60;68.78;99647.38;5069024;28;20516;-78
2021/05/09 02:01:27;;;;;;;7.25;2.00;;;14.70;75.50;;;13.59;68.93;99643.78;5068908;28;20117;-75
2021/05/09 02:04:09;;;;;;;6.68;2.08;;;14.70;75.50;;;13.58;68.44;99636.66;5067475;28;20144;-76
2021/05/09 02:06:48;;;;;;;6.93;1.98;;;14.70;75.70;;;13.57;68.77;99643.16;5067499;28;20059;-76
2021/05/09 02:09:31;;;;;;;5.40;1.90;;;14.70;75.40;;;13.57;68.69;99636.88;5055247;28;20052;-76
2021/05/09 02:12:13;;;;;;;4.35;1.88;;;14.70;75.40;;;13.57;68.51;99637.69;5047214;28;20528;-76
2021/05/09 02:14:56;;;;;;;4.18;2.15;;;14.70;75.50;;;13.58;68.73;99639.38;5047536;28;20053;-76
2021/05/09 02:17:35;;;;;;;4.05;2.08;;;14.70;75.70;;;13.57;68.76;99637.69;5048726;28;20802;-76
2021/05/09 02:20:27;;;;;;;4.30;1.90;;;14.70;75.50;;;13.56;69.31;99627.84;5047336;28;20072;-76
2021/05/09 02:23:06;;;;;;;3.83;1.98;;;14.70;75.80;;;13.55;69.12;99620.69;5048248;28;20033;-76
2021/05/09 02:25:45;;;;;;;3.42;2.00;;;14.70;76.10;;;13.56;68.96;99616.91;5048868;28;20132;-76
2021/05/09 02:28:19;;;;;;;4.70;2.35;;;14.70;75.90;;;13.55;68.90;99609.75;5047308;28;20045;-76
2021/05/09 02:30:56;;;;;;;4.47;2.10;;;14.70;76.10;;;13.55;68.50;99612.47;5048974;28;20048;-75
2021/05/09 02:33:31;;;;;;;4.70;2.05;;;14.70;76.10;;;13.55;68.83;99611.66;5048560;28;20045;-75
2021/05/09 02:36:10;;;;;;;6.82;2.05;;;14.60;75.70;;;13.54;68.72;99613.56;5048735;28;20053;-76
2021/05/09 02:38:45;;;;;;;3.88;1.90;;;14.60;75.40;;;13.52;68.29;99607.50;5047382;28;20049;-76
2021/05/09 02:41:29;;;;;;;4.65;1.95;;;14.60;75.70;;;13.53;68.08;99600.94;5048817;28;20110;-76
2021/05/09 02:44:08;;;;;;;5.03;1.88;;;14.60;75.60;;;13.53;68.80;99597.38;5047660;28;20053;-76
2021/05/09 02:46:46;;;;;;;4.03;1.90;;;14.60;76.10;;;13.51;68.93;99597.59;5067755;22;20041;-78
2021/05/09 02:49:19;;;;;;;5.30;1.80;;;14.60;75.90;;;13.50;68.24;99598.69;5050738;28;20143;-77
2021/05/09 02:51:59;;;;;;;4.15;2.05;;;14.50;75.60;;;13.50;68.52;99595.94;5068477;28;20579;-78
2021/05/09 02:54:39;;;;;;;4.43;2.10;;;14.50;75.80;;;13.51;68.23;99589.41;5050565;28;20052;-78
2021/05/09 02:57:19;;;;;;;6.13;1.98;;;14.50;75.90;;;13.48;68.71;99587.16;5050463;28;20052;-77
2021/05/09 02:59:57;;;;;;;4.78;2.22;;;14.50;76.30;;;13.48;68.33;99585.25;5067280;28;20504;-77
2021/05/09 03:02:33;;;;;;;5.03;2.20;;;14.50;75.90;;;13.48;68.82;99587.16;5050248;28;20472;-78
2021/05/09 03:05:13;;;;;;;4.50;1.98;;;14.50;76.30;;;13.48;69.07;99577.03;5067196;28;20098;-77
2021/05/09 03:07:46;;;;;;;3.60;1.85;;;14.50;75.80;;;13.49;68.62;99575.13;5053450;28;20458;-77
2021/05/09 03:10:25;;;;;;;4.13;1.80;;;14.50;76.20;;;13.49;68.36;99588.78;5054305;28;20068;-77
2021/05/09 03:13:06;;;;;;;4.05;2.00;;;14.50;76.50;;;13.47;68.37;99575.34;5071741;28;20036;-77
2021/05/09 03:15:41;;;;;;;6.88;2.20;;;14.50;76.30;;;13.47;68.81;99590.94;5070642;28;20056;-79
2021/05/09 03:18:20;;;;;;;4.55;1.92;;;14.50;76.20;;;13.47;68.70;99582.72;5054075;28;20691;-77
2021/05/09 03:21:00;;;;;;;5.25;1.80;;;14.50;76.50;;;13.46;69.18;99583.78;5072088;28;20401;-77
2021/05/09 03:23:35;;;;;;;4.78;2.00;;;14.50;76.20;;;13.43;68.92;99590.53;5071495;28;20126;-77
2021/05/09 03:26:08;;;;;;;3.55;1.80;;;14.50;76.20;;;13.42;68.69;99579.81;5083086;28;20047;-77
2021/05/09 03:28:44;;;;;;;7.05;1.80;;;14.40;76.30;;;13.41;68.50;99584.47;5073749;28;20041;-78
2021/05/09 03:31:22;;;;;;;7.40;2.30;;;14.40;76.40;;;13.40;68.58;99582.81;5091847;28;20055;-77
2021/05/09 03:33:59;;;;;;;4.35;2.03;;;14.40;76.10;;;13.37;69.25;99593.34;5091401;28;20044;-78
2021/05/09 03:36:32;;;;;;;4.75;2.00;;;14.30;76.80;;;13.33;69.69;99584.78;5091695;28;20050;-77
2021/05/09 03:39:10;;;;;;;3.60;2.25;;;14.30;77.00;;;13.34;69.56;99585.59;5091798;28;20059;-77
2021/05/09 03:41:45;;;;;;;4.78;2.38;;;14.30;77.10;;;13.31;69.61;99575.97;5091497;28;20040;-77
2021/05/09 03:44:24;;;;;;;4.18;2.00;;;14.20;77.40;;;13.30;69.75;99574.28;5091646;28;20040;-77
2021/05/09 03:46:59;;;;;;;4.38;1.83;;;14.20;77.60;;;13.28;69.71;99569.00;5091422;28;20075;-78
2021/05/09 03:49:39;;;;;;;3.65;2.20;;;14.20;77.70;;;13.28;69.86;99565.44;5091637;28;20097;-77
2021/05/09 03:52:15;;;;;;;3.95;1.73;;;14.20;77.70;;;13.30;69.63;99568.81;5091190;28;20411;-77
2021/05/09 03:54:50;;;;;;;3.63;1.80;;;14.20;77.80;;;13.32;69.86;99563.13;5091441;28;20039;-77
2021/05/09 03:57:28;;;;;;;5.50;2.28;;;14.20;77.80;;;13.32;69.46;99554.94;5091348;28;20044;-77
2021/05/09 04:00:02;;;;;;;4.78;2.08;;;14.20;78.20;;;13.34;69.91;99563.72;5089118;28;20040;-77
2021/05/09 04:02:37;;;;;;;5.60;2.10;;;14.20;78.20;;;13.35;70.05;99568.16;5052681;28;20222;-77
2021/05/09 04:05:16;;;;;;;4.70;2.13;;;14.30;78.60;;;13.35;70.56;99566.25;5071149;28;20059;-78
2021/05/09 04:07:48;;;;;;;4.60;1.90;;;14.30;78.20;;;13.35;69.85;99568.16;5070791;28;20041;-77
2021/05/09 04:10:26;;;;;;;4.90;1.80;;;14.30;78.40;;;13.36;69.94;99567.06;5070917;28;20045;-77
2021/05/09 04:13:04;;;;;;;3.58;1.80;;;14.30;78.20;;;13.37;70.34;99574.22;5070639;28;20041;-77
2021/05/09 04:15:42;;;;;;;5.30;2.00;;;14.30;78.50;;;13.38;70.46;99579.44;5070793;28;20071;-77
2021/05/09 04:18:20;;;;;;;5.78;1.80;;;14.40;78.00;;;13.37;70.44;99579.69;5069837;28;20049;-77
2021/05/09 04:20:55;;;;;;;3.85;1.80;;;14.40;78.20;;;13.39;70.32;99583.03;5070864;28;20036;-77
2021/05/09 04:23:33;;;;;;;4.25;1.90;;;14.40;78.10;;;13.39;70.13;99572.94;5070413;28;20040;-77
2021/05/09 04:26:12;;;;;;;4.63;1.88;;;14.40;78.20;;;13.39;70.44;99561.16;5070479;28;20055;-78
2021/05/09 04:28:50;;;;;;;6.25;1.90;;;14.40;78.00;;;13.41;70.48;99565.34;5070597;28;20067;-77
2021/05/09 04:31:29;;;;;;;4.10;1.85;;;14.40;78.00;;;13.41;70.41;99554.41;5070577;28;20105;-77
2021/05/09 04:34:07;;;;;;;5.93;2.10;;;14.50;78.10;;;13.44;70.47;99564.03;5070171;28;20041;-77
2021/05/09 04:36:47;;;;;;;5.15;2.00;;;14.50;78.40;;;13.46;70.88;99564.63;5070231;28;20044;-77
2021/05/09 04:39:22;;;;;;;3.55;1.73;;;14.60;78.10;;;13.47;70.53;99560.84;5052349;28;20071;-77
2021/05/09 04:41:56;;;;;;;4.97;2.08;;;14.60;78.10;;;13.48;70.41;99566.09;5069828;28;20040;-78
2021/05/09 04:44:31;;;;;;;6.90;2.17;;;14.60;78.00;;;13.51;70.58;99561.25;5070133;28;20091;-77
2021/05/09 04:47:08;;;;;;;4.80;1.90;;;14.60;78.00;;;13.53;70.78;99562.66;5051962;28;20473;-78
2021/05/09 04:49:43;;;;;;;5.82;1.80;;;14.70;78.30;;;13.56;71.10;99562.22;5070109;28;20512;-78
2021/05/09 04:52:18;;;;;;;5.35;1.88;;;14.70;78.10;;;13.60;70.98;99565.34;5069849;28;20094;-77
2021/05/09 04:54:56;;;;;;;4.50;1.85;;;14.80;78.20;;;13.64;71.35;99559.19;5070032;28;20520;-77
2021/05/09 04:57:29;;;;;;;5.57;1.98;;;14.90;77.90;;;13.68;71.36;99554.09;5068196;28;20571;-78
2021/05/09 05:00:04;;;;;;;4.32;1.90;;;14.90;78.10;;;13.74;71.15;99552.34;5069934;28;20090;-78
2021/05/09 05:02:38;;;;;;;3.40;1.80;;;15.00;77.60;;;13.76;71.24;99539.28;5069677;28;20791;-78
2021/05/09 05:05:17;;;;;;;5.35;1.80;;;15.10;77.60;;;13.81;70.84;99542.16;5051899;28;20561;-78
2021/05/09 05:07:54;;;;;;;3.78;1.63;;;15.20;77.30;;;13.88;71.62;99531.97;5051694;28;20048;-78
2021/05/09 05:10:32;;;;;;;3.75;1.80;;;15.20;77.30;;;13.93;71.22;99525.81;5069745;28;20037;-79
2021/05/09 05:13:23;;;;;;;6.25;1.95;;;15.30;77.00;;;14.03;71.25;99526.94;5069433;28;20032;-79
2021/05/09 05:16:02;;;;;;;3.53;1.63;;;15.40;76.70;;;14.07;70.82;99530.88;5071502;28;20047;-79
2021/05/09 05:18:39;;;;;;;3.88;1.95;;;15.50;76.30;;;14.18;71.31;99537.44;5069961;28;20040;-79
2021/05/09 05:21:17;;;;;;;4.95;1.80;;;15.60;76.60;;;14.28;70.46;99535.00;5069588;28;20040;-78
2021/05/09 05:23:52;;;;;;;4.32;1.90;;;15.80;76.00;;;14.40;70.56;99532.28;5074341;28;20040;-79
2021/05/09 05:26:32;;;;;;;3.55;1.83;;;15.90;75.80;;;14.48;69.83;99528.38;5089397;28;20495;-79
2021/05/09 05:29:08;;;;;;;5.00;1.70;;;16.00;75.00;;;14.53;69.84;99523.03;5089453;28;20125;-78
2021/05/09 05:31:45;;;;;;;3.88;1.52;;;16.00;74.80;;;14.57;69.39;99523.44;5089435;28;20051;-78
2021/05/09 05:34:21;;;;;;;2.83;1.48;;;16.20;74.10;;;14.61;68.76;99525.44;5089595;28;20036;-78
2021/05/09 05:36:54;;;;;;;3.65;1.70;;;16.20;73.50;;;14.62;68.39;99526.28;5089471;28;20051;-79
2021/05/09 05:39:32;;;;;;;5.47;1.73;;;16.30;73.10;;;14.63;67.83;99533.44;5089590;28;20056;-81
2021/05/09 05:42:07;;;;;;;6.50;1.73;;;16.20;72.30;;;14.62;68.23;99523.53;5089204;28;20530;-80
2021/05/09 05:44:47;;;;;;;3.70;1.85;;;16.30;72.80;;;14.64;68.23;99532.34;5089645;28;20149;-78
2021/05/09 05:47:25;;;;;;;4.53;1.50;;;16.30;72.70;;;14.66;67.94;99536.53;5089162;28;20044;-78
2021/05/09 05:50:04;;;;;;;4.13;1.58;;;16.40;72.40;;;14.70;68.19;99533.31;5089276;28;20044;-78
2021/05/09 05:52:42;;;;;;;3.92;1.80;;;16.40;72.00;;;14.76;68.14;99530.47;5088976;28;20115;-78
2021/05/09 05:55:21;;;;;;;3.83;1.60;;;16.50;71.90;;;14.86;68.10;99527.97;5089353;28;20176;-78
2021/05/09 05:57:59;;;;;;;4.72;1.77;;;16.60;71.60;;;14.99;67.32;99528.84;5089249;28;20051;-77
2021/05/09 06:00:37;;;;;;;3.58;1.50;;;16.80;70.80;;;15.09;67.02;99526.31;5089149;28;20048;-76
2021/05/09 06:03:12;;;;;;;4.78;1.42;;;17.00;70.10;;;15.22;66.66;99526.06;5088919;28;20044;-76
2021/05/09 06:05:56;;;;;;;3.45;1.55;;;17.30;69.30;;;15.43;66.44;99524.63;5089042;28;20400;-77
2021/05/09 06:08:32;;;;;;;3.50;1.50;;;17.60;68.90;;;15.53;66.19;99526.75;5089005;28;20048;-77
2021/05/09 06:11:04;;;;;;;5.90;1.70;;;17.80;68.10;;;15.68;65.45;99522.66;5089118;28;20051;-77
2021/05/09 06:13:40;;;;;;;4.15;1.50;;;18.00;66.80;;;15.74;65.66;99530.78;5088862;28;20044;-77
2021/05/09 06:16:18;;;;;;;3.25;1.58;;;18.20;66.70;;;15.79;65.23;99524.56;5089372;28;20048;-77
2021/05/09 06:18:56;;;;;;;4.82;1.48;;;18.30;66.20;;;15.82;65.10;99513.94;5089008;28;20105;-77
2021/05/09 06:21:36;;;;;;;3.25;1.45;;;18.40;65.70;;;15.89;64.79;99497.31;5070676;28;20703;-76
2021/05/09 06:24:15;;;;;;;4.68;1.60;;;18.40;65.10;;;15.92;64.01;99496.03;5088777;28;20507;-77
2021/05/09 06:26:53;;;;;;;4.18;1.42;;;18.50;64.60;;;15.96;64.07;99489.78;5088884;28;20044;-77
2021/05/09 06:29:30;;;;;;;5.38;1.52;;;18.60;64.40;;;16.09;63.61;99504.28;5088873;28;20044;-76
2021/05/09 06:32:06;;;;;;;5.55;1.77;;;18.60;63.90;;;16.16;63.55;99507.72;5088546;28;20040;-77
2021/05/09 06:34:44;;;;;;;3.90;1.40;;;18.70;64.00;;;16.25;63.36;99506.25;5088759;28;20770;-78
2021/05/09 06:37:20;;;;;;;4.55;1.70;;;18.70;64.00;;;16.29;64.45;99507.41;5088561;28;20051;-78
2021/05/09 06:40:00;;;;;;;3.80;1.55;;;18.80;65.00;;;16.38;63.46;99500.44;5088616;28;20043;-77
2021/05/09 06:42:33;;;;;;;4.70;1.50;;;18.90;64.20;;;16.45;62.26;99497.53;5091356;28;20040;-77
2021/05/09 06:45:12;;;;;;;3.25;1.20;;;18.90;63.10;;;16.51;62.96;99493.78;5074383;28;20036;-77
2021/05/09 06:47:50;;;;;;;4.07;1.50;;;18.90;63.50;;;16.57;64.36;99491.97;5092469;28;20044;-77
2021/05/09 06:50:27;;;;;;;5.53;1.55;;;19.00;64.70;;;16.64;64.27;99486.28;5092633;28;20094;-77
2021/05/09 06:53:01;;;;;;;3.33;1.45;;;19.00;64.50;;;16.67;65.23;99481.13;5073774;28;20044;-77
2021/05/09 06:55:40;;;;;;;4.07;1.63;;;19.00;65.20;;;16.78;64.16;99482.97;5074196;28;20086;-77
2021/05/09 06:58:12;;;;;;;3.03;1.50;;;19.10;64.60;;;16.86;63.69;99481.72;5092241;28;20101;-77
2021/05/09 07:00:51;;;;;;;5.32;1.77;;;19.20;64.60;;;16.95;63.21;99484.91;5092396;28;20040;-76
2021/05/09 07:03:26;;;;;;;3.28;1.50;;;19.20;63.90;;;17.02;62.61;99493.81;5091888;28;20089;-76
2021/05/09 07:05:59;;;;;;;3.47;1.48;;;19.30;63.60;;;17.08;63.49;99492.78;5092153;28;20052;-77
2021/05/09 07:08:42;;;;;;;4.00;1.60;;;19.30;64.50;;;17.18;63.09;99489.34;5092125;28;20044;-76
2021/05/09 07:11:14;;;;;;;3.50;1.60;;;19.40;63.90;;;17.26;63.15;99477.91;5092365;28;20048;-76
2021/05/09 07:13:52;;;;;;;4.13;1.52;;;19.40;64.30;;;17.34;62.14;99482.13;5091727;28;20039;-76
2021/05/09 07:16:30;;;;;;;5.10;1.50;;;19.50;63.50;;;17.34;62.89;99468.38;5088818;28;20044;-76
2021/05/09 07:19:09;;;;;;;4.53;1.63;;;19.50;64.40;;;17.32;61.45;99454.06;5033649;28;20057;-76
2021/05/09 07:21:51;;;;;;;5.32;1.58;;;19.50;62.60;;;17.35;62.59;99446.13;5051588;28;20057;-75
2021/05/09 07:24:30;;;;;;;4.07;2.25;;;19.60;63.40;;;17.39;60.71;99452.78;5051526;28;20037;-76
2021/05/09 07:27:05;;;;;;;5.35;1.77;;;19.60;61.70;;;17.53;60.50;99436.72;5051521;28;20051;-77
2021/05/09 07:29:43;;;;;;;4.75;1.63;;;19.60;61.70;;;17.55;62.08;99434.56;5051516;28;20124;-76
2021/05/09 07:32:19;;;;;;;4.90;1.60;;;19.70;63.50;;;17.59;60.94;99438.47;5033130;28;20045;-75
2021/05/09 07:34:54;;;;;;;5.25;1.55;;;19.80;62.10;;;17.61;59.83;99445.59;5051241;28;20041;-75
2021/05/09 07:37:29;;;;;;;3.17;1.40;;;19.80;61.00;;;17.72;60.75;99436.38;5051320;28;20049;-75
2021/05/09 07:40:09;;;;;;;6.80;1.60;;;19.80;61.90;;;17.81;59.79;99426.56;5051128;28;20463;-75
2021/05/09 07:42:44;;;;;;;3.53;1.50;;;19.90;61.80;;;17.89;59.08;99428.88;5050951;28;20090;-75
2021/05/09 07:45:23;;;;;;;4.15;1.70;;;19.90;60.60;;;17.95;58.37;99419.63;5051303;28;20041;-76
2021/05/09 07:48:02;;;;;;;4.40;1.30;;;20.00;60.00;;;17.98;60.18;99424.56;5050996;28;20040;-76
2021/05/09 07:50:37;;;;;;;4.63;1.73;;;20.00;61.50;;;18.10;59.27;99418.91;5050848;28;20049;-76
2021/05/09 07:53:14;;;;;;;5.00;1.60;;;20.10;60.80;;;18.13;61.05;99417.56;5050863;28;20493;-76
2021/05/09 07:55:50;;;;;;;5.50;1.52;;;20.20;62.50;;;18.17;59.18;99418.69;5050984;28;20052;-76
2021/05/09 07:58:26;;;;;;;3.42;1.50;;;20.20;61.20;;;18.24;59.05;99422.06;5050954;28;20053;-79
2021/05/09 08:01:03;;;;;;;3.95;1.50;;;20.30;61.10;;;18.29;59.15;99416.59;5050867;28;20056;-77
2021/05/09 08:03:39;;;;;;;3.17;1.70;;;20.30;60.50;;;18.31;59.12;99419.91;5050413;28;20045;-77
2021/05/09 08:06:16;;;;;;;4.75;1.50;;;20.40;59.90;;;18.46;58.28;99412.88;5050354;28;20045;-77
2021/05/09 08:08:49;;;;;;;3.63;1.50;;;20.50;59.50;;;18.44;59.46;99404.88;5050146;28;20527;-77
2021/05/09 08:11:30;;;;;;;3.35;1.40;;;20.50;60.40;;;18.48;58.69;99413.44;5050579;28;20045;-77
2021/05/09 08:14:05;;;;;;;3.08;1.50;;;20.60;60.00;;;18.46;58.79;99410.94;5001787;28;20064;-77
2021/05/09 08:16:43;;;;;;;6.22;1.58;;;20.60;59.70;;;18.49;59.12;99407.66;5032552;28;20449;-77
2021/05/09 08:19:24;;;;;;;3.10;1.30;;;20.70;60.00;;;18.54;59.45;99407.72;5050511;28;20049;-77
2021/05/09 08:21:59;;;;;;;4.72;1.95;;;20.70;60.20;;;18.68;59.30;99404.50;5050191;28;20279;-77
2021/05/09 08:24:38;;;;;;;4.22;2.03;;;20.80;60.30;;;18.69;58.58;99384.09;5050180;28;20048;-77
2021/05/09 08:27:17;;;;;;;3.70;1.63;;;20.80;59.50;;;18.66;58.80;99385.47;5050237;28;20107;-77
2021/05/09 08:29:49;;;;;;;5.43;1.63;;;20.90;59.50;;;18.71;58.04;99388.25;5050250;28;20052;-77
2021/05/09 08:32:27;;;;;;;5.38;1.60;;;20.90;58.90;;;18.72;59.45;99378.06;5050018;28;20047;-77
2021/05/09 08:35:07;;;;;;;4.82;1.63;;;21.00;60.40;;;18.82;59.91;99371.81;5050091;28;20040;-77
2021/05/09 08:37:40;;;;;;;6.10;1.60;;;21.00;60.10;;;18.85;59.78;99362.97;5050223;28;20049;-77
2021/05/09 08:40:18;;;;;;;4.47;1.48;;;21.00;61.00;;;18.94;60.19;99364.13;5050030;28;20044;-77
2021/05/09 08:42:57;;;;;;;5.70;1.60;;;21.10;61.40;;;19.09;59.39;99360.63;5049830;28;20103;-77
2021/05/09 08:45:33;;;;;;;7.00;1.60;;;21.10;60.70;;;19.14;57.71;99369.75;5050002;28;20158;-77
2021/05/09 08:48:06;;;;;;;3.92;1.55;;;21.20;59.00;;;19.16;57.71;99354.88;5089292;22;20508;-77
2021/05/09 08:50:44;;;;;;;2.78;1.50;;;21.20;59.00;;;19.06;58.25;99345.47;5090063;28;20040;-77
2021/05/09 08:53:26;;;;;;;3.10;1.40;;;21.30;59.10;;;19.10;58.39;99345.75;5089711;28;20044;-77
2021/05/09 08:56:04;;;;;;;6.97;1.70;;;21.40;59.50;;;19.09;58.53;99328.34;5090051;28;20047;-77
2021/05/09 08:58:46;;;;;;;7.20;1.80;;;21.40;59.30;;;19.07;58.01;99325.03;5089953;28;20510;-77
2021/05/09 09:01:30;;;;;;;3.08;1.58;;;21.40;59.50;;;19.06;57.35;99328.09;5088245;28;20079;-77
2021/05/09 09:04:05;;;;;;;8.88;1.70;;;21.40;58.90;;;19.04;57.51;99320.09;5088899;28;20400;-77
2021/05/09 09:06:48;;;;;;;6.68;1.70;;;21.50;58.40;;;19.09;56.83;99311.00;5089678;28;20044;-77
2021/05/09 09:09:28;;;;;;;3.85;1.52;;;21.50;58.10;;;19.00;57.72;99313.47;5089932;28;20044;-77
2021/05/09 09:12:06;;;;;;;3.10;1.50;;;21.40;57.80;;;19.04;59.09;99308.19;5089375;28;20480;-77
2021/05/09 09:18:21;;;;;;;5.32;1.67;;;21.50;59.20;;;19.39;57.81;99290.13;5067333;28;20139;-75
2021/05/09 09:20:59;;;;;;;4.40;1.52;;;21.60;58.40;;;19.33;56.91;99281.81;5084388;28;20067;-77
2021/05/09 09:23:50;;;;;;;4.55;1.60;;;21.60;58.80;;;19.38;58.79;99275.50;5068592;28;20400;-77
2021/05/09 09:26:52;;;;;;;6.68;1.75;;;21.70;59.50;;;19.51;59.98;99266.69;5069405;28;20047;-77
2021/05/09 09:29:29;;;;;;;4.15;1.65;;;21.80;60.40;;;19.62;59.75;99258.41;5058966;28;20053;-77
2021/05/09 09:32:09;;;;;;;5.03;1.67;;;21.90;60.20;;;19.59;57.56;99257.03;5067494;28;20497;-78
2021/05/09 09:34:48;;;;;;;4.55;1.70;;;21.90;58.90;;;19.48;56.87;99247.91;5068884;28;20059;-78
2021/05/09 09:37:32;;;;;;;6.15;1.88;;;21.90;58.40;;;19.48;59.08;99250.66;5068881;28;20049;-77
2021/05/09 09:40:18;;;;;;;8.60;1.98;;;21.90;58.70;;;19.41;58.32;99236.31;5069000;28;20040;-77
2021/05/09 09:42:56;;;;;;;116.13;6.60;;;21.80;57.70;;;19.66;59.35;99234.66;5078039;28;20480;-79
2021/05/09 09:45:40;;;;;;;8.52;2.00;;;21.80;59.00;;;19.56;57.86;99234.69;5078121;28;20040;-77
2021/05/09 09:48:19;;;;;;;3.75;1.70;;;21.80;57.80;;;19.61;58.03;99223.63;5083451;28;20033;-77
2021/05/09 09:51:00;;;;;;;63.65;4.32;;;21.80;58.30;;;19.72;59.45;99214.25;5079665;28;20100;-79
2021/05/09 09:53:38;;;;;;;6.53;2.05;;;21.80;59.30;;;19.70;59.76;99228.31;5084004;28;20101;-80
2021/05/09 09:56:18;;;;;;;11.50;2.17;;;21.80;60.00;;;19.71;60.13;99212.59;5083181;28;20041;-77
2021/05/09 09:58:59;;;;;;;4.40;1.80;;;21.80;60.20;;;19.82;59.88;99206.00;5078077;28;20045;-77
2021/05/09 10:01:36;;;;;;;4.38;2.00;;;21.90;60.40;;;19.94;59.40;99210.38;5084988;28;20059;-81
2021/05/09 10:04:14;;;;;;;4.00;1.63;;;21.90;60.20;;;19.96;58.19;99202.66;5073332;28;20047;-80
2021/05/09 10:06:49;;;;;;;5.10;1.85;;;22.00;59.40;;;20.06;60.45;99192.38;5084591;28;20051;-80
2021/05/09 10:09:27;;;;;;;5.63;2.05;;;22.00;60.40;;;20.09;59.72;99191.03;5074744;28;20051;-80
2021/05/09 10:12:03;;;;;;;5.43;2.00;;;22.10;60.90;;;20.05;58.97;99190.75;5070570;28;20055;-80
2021/05/09 10:14:42;;;;;;;3.63;1.90;;;22.10;59.70;;;20.19;59.57;99196.50;5086738;28;20055;-79
2021/05/09 10:17:20;;;;;;;5.70;2.00;;;22.10;60.40;;;20.26;57.38;99202.56;5082312;28;20048;-79
2021/05/09 10:20:01;;;;;;;3.33;1.90;;;22.20;58.30;;;20.34;57.68;99189.28;5091746;28;20113;-79
2021/05/09 10:22:40;;;;;;;8.02;2.15;;;22.30;58.50;;;20.31;58.89;99194.28;5098146;28;20048;-79
2021/05/09 10:25:54;;;;;;;7.30;2.08;;;22.30;58.80;;;20.20;56.01;99187.13;5076955;28;20036;-79
2021/05/09 10:28:37;;;;;;;6.82;1.60;;;22.30;56.90;;;20.22;56.65;99179.38;5088494;28;20392;-79
2021/05/09 10:31:29;;;;;;;4.50;1.80;;;22.20;57.80;;;20.30;57.05;99187.09;5092175;28;20048;-79
2021/05/09 10:34:07;;;;;;;3.97;1.80;;;22.30;57.90;;;20.33;56.00;99182.91;5092283;28;20040;-79
2021/05/09 10:36:52;;;;;;;5.85;1.73;;;22.30;57.30;;;20.27;57.53;99186.81;5092799;28;20526;-79
2021/05/09 10:39:23;;;;;;;4.82;2.00;;;22.30;57.70;;;20.28;56.39;99183.78;5072543;28;20236;-79
2021/05/09 10:42:20;;;;;;;;;;;22.30;57.50;;;20.28;56.90;99182.97;5078229;28;20472;-79
2021/05/09 10:44:58;;;;;;;5.13;1.83;;;22.30;58.40;;;20.25;56.80;99173.28;5092367;28;19920;-79
2021/05/09 10:47:33;;;;;;;4.50;1.90;;;22.20;57.60;;;20.28;57.56;99160.84;5091791;28;20419;-79
2021/05/09 10:50:29;;;;;;;6.57;1.90;;;22.30;58.10;;;20.37;59.45;99163.84;5090893;28;20048;-79
2021/05/09 10:52:59;;;;;;;4.15;1.63;;;22.30;59.60;;;20.39;57.66;99162.47;5071777;28;20492;-79
2021/05/09 10:55:50;;;;;;;4.95;1.92;;;22.40;58.60;;;20.47;58.32;99156.34;5079911;28;20040;-79
2021/05/09 10:58:46;;;;;;;5.93;2.35;;;22.40;59.40;;;20.54;55.93;99158.78;5092055;28;20050;-79
2021/05/09 11:01:26;;;;;;;5.70;2.08;;;22.50;57.60;;;20.43;57.15;99155.25;5090958;28;20119;-79
2021/05/09 11:04:10;;;;;;;4.90;2.00;;;22.50;57.60;;;20.69;55.32;99150.47;5090494;28;20036;-78
2021/05/09 11:06:53;;;;;;;4.50;2.05;;;22.50;56.50;;;20.78;55.48;99150.69;5088431;28;20036;-79
2021/05/09 11:09:42;;;;;;;5.60;2.10;;;22.70;56.90;;;20.78;56.38;99158.16;5079149;28;20061;-79